アナディリ の空港の天気 - METARとTAF

アナディリ・ウゴルヌイ空港 ( UHMA / DYR ) - ロシア アナディリ
飛行場実況気象(Metar)
観測時間10/22 03:00 MAGT (10/21 16:00 UTC)
風向・風速南東 4m/s
視程10km以上
天気現象
なし
気温3℃
湿度87%
気圧1029hPa
METARUHMA 211600Z 14004MPS CAVOK 03/01 Q1029 R01/////// NOSIG RMK TDZ R01/14004G06MPS END R01/15006G08MPS QFE767/1023
過去の天気等 Google飛行場航空写真 Wunderground天気予報

過去48時間のMETAR

飛行場予報(TAF)
発表時間: 10/22 00:41 MAGT (10/21 13:41 UTC)
予報対象時間: 22日2時 MAGT ~ 23日2時 MAGT
風向・風速南南東 5m/s 瞬間風速 10m/s
視程10km以上
全天の4割程度の雲 雲底高度 460m
22日2時 MAGT ~ 22日10時 MAGT に一時的に
風向・風速南東 10m/s 瞬間風速 15m/s
視程5000m
天気現象もや
全天の4割程度の雲 雲底高度 150m
全天の8割程度の雲 雲底高度 460m
22日10時 MAGT から
風向・風速東南東 3m/s 瞬間風速 8m/s
視程5000m
天気現象もや
全天の4割程度の雲 雲底高度 150m
22日11時 MAGT ~ 23日2時 MAGT に一時的に
風向・風速東 6m/s
視程500m
天気現象
全天の8割程度の雲 雲底高度 60m
TAF UHMA 211341Z 2115/2215 15005G10MPS 9999 SCT015
TEMPO 2115/2123 13010G15MPS 5000 BR SCT005 BKN015
FM212300 12003G08MPS 5000 BR SCT005
TEMPO 2200/2215 09006MPS 0500 FG BKN002